createdAt,value
2019-02-18T07:47:38.169Z,22.19
2019-02-18T07:57:44.023Z,22.56
2019-02-18T08:07:49.025Z,22.81
2019-02-18T08:17:54.863Z,22.87
2019-02-18T08:28:00.788Z,23.12
2019-02-18T08:38:06.688Z,23.19
2019-02-18T08:48:12.509Z,23.12
2019-02-18T08:58:18.283Z,23.00
2019-02-18T09:08:24.434Z,23.31
2019-02-18T09:18:30.233Z,23.19
2019-02-18T09:28:36.089Z,23.31
2019-02-18T09:38:41.099Z,23.38
2019-02-18T09:48:46.836Z,23.38
2019-02-18T09:58:52.698Z,23.69
2019-02-18T10:08:58.833Z,23.75
2019-02-18T10:19:04.749Z,23.94
2019-02-18T10:29:10.766Z,24.12
2019-02-18T10:39:16.675Z,24.25
2019-02-18T10:49:22.460Z,24.50
2019-02-18T10:59:29.167Z,24.44
2019-02-18T11:09:34.182Z,24.87
2019-02-18T11:19:39.921Z,24.75
2019-02-18T11:29:45.619Z,24.81
2019-02-18T11:39:51.392Z,24.63
2019-02-18T11:49:57.278Z,24.63
2019-02-18T12:00:03.237Z,24.81
2019-02-18T12:10:12.327Z,24.81
2019-02-18T12:20:18.810Z,25.00
2019-02-18T12:30:24.783Z,25.00
2019-02-18T12:40:30.671Z,24.87
2019-02-18T12:50:36.539Z,24.94
2019-02-18T13:00:42.464Z,25.19
2019-02-18T13:10:48.331Z,24.75
2019-02-18T13:20:54.311Z,24.87
2019-02-18T13:31:54.210Z,24.56
2019-02-18T13:42:07.302Z,24.69
2019-02-18T13:52:09.108Z,24.94
2019-02-18T14:02:15.943Z,24.87
2019-02-18T14:12:21.737Z,25.12
2019-02-18T14:22:27.597Z,24.75
2019-02-18T14:32:33.463Z,24.94
2019-02-18T14:42:38.474Z,24.87
2019-02-18T14:52:44.327Z,24.69
2019-02-18T15:02:52.487Z,24.50
2019-02-18T15:12:58.458Z,24.37
2019-02-18T15:23:04.278Z,24.06
2019-02-18T15:33:10.164Z,24.06
2019-02-18T15:43:15.992Z,23.87
2019-02-18T15:53:21.846Z,23.56
2019-02-18T16:03:27.830Z,23.50
2019-02-18T16:13:33.703Z,23.50
2019-02-18T16:23:39.594Z,23.50
2019-02-18T16:33:44.614Z,23.50
2019-02-18T16:43:51.400Z,23.75
2019-02-18T16:53:57.739Z,23.87
2019-02-18T17:04:03.679Z,23.56
2019-02-18T17:14:09.620Z,23.81
2019-02-18T17:24:15.503Z,23.69
2019-02-18T17:34:21.346Z,23.69
2019-02-18T17:44:27.555Z,23.56
2019-02-18T17:54:33.407Z,23.62
2019-02-18T18:04:39.448Z,23.81
2019-02-18T18:14:45.284Z,23.75
2019-02-18T18:24:51.501Z,23.69
2019-02-18T18:34:57.694Z,23.69
2019-02-18T18:45:03.607Z,23.75
2019-02-18T18:55:09.590Z,23.75
2019-02-18T19:05:15.424Z,23.69
2019-02-18T19:15:21.381Z,23.56
2019-02-18T19:25:27.237Z,23.69
2019-02-18T19:35:33.174Z,23.75
2019-02-18T19:45:39.143Z,23.75
2019-02-18T19:55:44.137Z,23.69
2019-02-18T20:05:49.834Z,23.50
2019-02-18T20:15:56.217Z,23.56
2019-02-18T20:26:02.172Z,23.56
2019-02-18T20:36:08.233Z,23.56
2019-02-18T20:46:13.253Z,23.62
2019-02-18T20:56:19.082Z,23.56
2019-02-18T21:06:24.914Z,23.50
2019-02-18T21:16:30.790Z,23.44
2019-02-18T21:26:36.797Z,23.50
2019-02-18T21:36:43.473Z,23.31
2019-02-18T21:46:48.457Z,23.38
2019-02-18T21:56:54.536Z,23.25
2019-02-18T22:06:59.527Z,23.31
2019-02-18T22:17:04.599Z,23.38
2019-02-18T22:27:10.442Z,23.19
2019-02-18T22:37:16.347Z,23.19
2019-02-18T22:47:22.593Z,23.19
2019-02-18T22:57:28.403Z,23.12
2019-02-18T23:07:34.189Z,23.19
2019-02-18T23:17:39.980Z,23.06
2019-02-18T23:27:45.921Z,23.06
2019-02-18T23:37:51.735Z,23.12
2019-02-18T23:47:57.548Z,23.19
2019-02-18T23:58:03.406Z,23.12
